sensor_id;sensor_type;location;lat;lon;timestamp;P1;durP1;ratioP1;P2;durP2;ratioP2
63189;SDS011;49286;44.460;26.114;2023-04-19T00:00:25;17.90;;;10.05;;
63189;SDS011;49286;44.460;26.114;2023-04-19T00:02:51;16.67;;;9.30;;
63189;SDS011;49286;44.460;26.114;2023-04-19T00:05:18;13.10;;;8.65;;
63189;SDS011;49286;44.460;26.114;2023-04-19T00:07:44;17.45;;;11.55;;
63189;SDS011;49286;44.460;26.114;2023-04-19T00:10:11;16.45;;;10.55;;
63189;SDS011;49286;44.460;26.114;2023-04-19T00:12:36;13.55;;;9.10;;
63189;SDS011;49286;44.460;26.114;2023-04-19T00:15:02;21.00;;;8.63;;
63189;SDS011;49286;44.460;26.114;2023-04-19T00:17:27;12.90;;;9.38;;
63189;SDS011;49286;44.460;26.114;2023-04-19T00:19:53;13.88;;;9.98;;
63189;SDS011;49286;44.460;26.114;2023-04-19T00:22:19;13.32;;;9.30;;
63189;SDS011;49286;44.460;26.114;2023-04-19T00:24:44;12.27;;;9.13;;
63189;SDS011;49286;44.460;26.114;2023-04-19T00:27:10;17.50;;;10.82;;
63189;SDS011;49286;44.460;26.114;2023-04-19T00:29:35;14.52;;;9.98;;
63189;SDS011;49286;44.460;26.114;2023-04-19T00:32:00;13.27;;;9.52;;
63189;SDS011;49286;44.460;26.114;2023-04-19T00:34:26;15.45;;;10.13;;
63189;SDS011;49286;44.460;26.114;2023-04-19T00:36:51;16.13;;;11.07;;
63189;SDS011;49286;44.460;26.114;2023-04-19T00:39:17;16.00;;;9.65;;
63189;SDS011;49286;44.460;26.114;2023-04-19T00:41:42;15.18;;;10.57;;
63189;SDS011;49286;44.460;26.114;2023-04-19T00:44:08;21.77;;;9.45;;
63189;SDS011;49286;44.460;26.114;2023-04-19T00:46:35;16.15;;;9.82;;
63189;SDS011;49286;44.460;26.114;2023-04-19T00:49:01;20.30;;;10.60;;
63189;SDS011;49286;44.460;26.114;2023-04-19T00:51:27;14.35;;;9.10;;
63189;SDS011;49286;44.460;26.114;2023-04-19T00:53:52;16.52;;;8.30;;
63189;SDS011;49286;44.460;26.114;2023-04-19T00:56:18;12.05;;;8.45;;
63189;SDS011;49286;44.460;26.114;2023-04-19T00:58:46;13.02;;;8.52;;
63189;SDS011;49286;44.460;26.114;2023-04-19T01:01:12;22.70;;;9.73;;
63189;SDS011;49286;44.460;26.114;2023-04-19T01:03:38;15.52;;;9.02;;
63189;SDS011;49286;44.460;26.114;2023-04-19T01:06:04;13.40;;;9.07;;
63189;SDS011;49286;44.460;26.114;2023-04-19T01:08:29;12.05;;;9.10;;
63189;SDS011;49286;44.460;26.114;2023-04-19T01:10:55;10.50;;;8.27;;
63189;SDS011;49286;44.460;26.114;2023-04-19T01:13:20;17.20;;;8.85;;
63189;SDS011;49286;44.460;26.114;2023-04-19T01:15:46;14.68;;;8.75;;
63189;SDS011;49286;44.460;26.114;2023-04-19T01:18:11;25.42;;;10.48;;
63189;SDS011;49286;44.460;26.114;2023-04-19T01:20:38;12.80;;;8.27;;
63189;SDS011;49286;44.460;26.114;2023-04-19T01:23:03;14.38;;;9.85;;
63189;SDS011;49286;44.460;26.114;2023-04-19T01:25:29;49.25;;;30.95;;
63189;SDS011;49286;44.460;26.114;2023-04-19T01:27:55;11.93;;;10.63;;
63189;SDS011;49286;44.460;26.114;2023-04-19T01:30:20;13.48;;;10.48;;
63189;SDS011;49286;44.460;26.114;2023-04-19T01:32:46;23.40;;;18.05;;
63189;SDS011;49286;44.460;26.114;2023-04-19T01:35:11;39.65;;;25.48;;
63189;SDS011;49286;44.460;26.114;2023-04-19T01:37:37;23.35;;;17.25;;
63189;SDS011;49286;44.460;26.114;2023-04-19T01:40:05;28.30;;;19.85;;
63189;SDS011;49286;44.460;26.114;2023-04-19T01:42:31;23.25;;;14.68;;
63189;SDS011;49286;44.460;26.114;2023-04-19T01:44:56;18.92;;;15.40;;
63189;SDS011;49286;44.460;26.114;2023-04-19T01:47:22;19.80;;;13.30;;
63189;SDS011;49286;44.460;26.114;2023-04-19T01:49:48;18.85;;;14.10;;
63189;SDS011;49286;44.460;26.114;2023-04-19T01:52:14;41.17;;;26.45;;
63189;SDS011;49286;44.460;26.114;2023-04-19T01:54:39;18.23;;;13.98;;
63189;SDS011;49286;44.460;26.114;2023-04-19T01:57:05;15.00;;;10.60;;
63189;SDS011;49286;44.460;26.114;2023-04-19T01:59:30;12.23;;;10.00;;
63189;SDS011;49286;44.460;26.114;2023-04-19T02:01:56;12.45;;;9.65;;
63189;SDS011;49286;44.460;26.114;2023-04-19T02:04:21;12.40;;;8.30;;
63189;SDS011;49286;44.460;26.114;2023-04-19T02:06:47;15.73;;;8.90;;
63189;SDS011;49286;44.460;26.114;2023-04-19T02:09:12;19.00;;;9.48;;
63189;SDS011;49286;44.460;26.114;2023-04-19T02:11:38;14.93;;;9.20;;
63189;SDS011;49286;44.460;26.114;2023-04-19T02:14:03;14.30;;;9.43;;
63189;SDS011;49286;44.460;26.114;2023-04-19T02:16:28;16.42;;;9.35;;
63189;SDS011;49286;44.460;26.114;2023-04-19T02:18:54;13.65;;;8.93;;
63189;SDS011;49286;44.460;26.114;2023-04-19T02:21:19;13.65;;;8.73;;
63189;SDS011;49286;44.460;26.114;2023-04-19T02:23:45;13.57;;;9.10;;
63189;SDS011;49286;44.460;26.114;2023-04-19T02:26:10;12.07;;;8.98;;
63189;SDS011;49286;44.460;26.114;2023-04-19T02:28:37;15.57;;;9.73;;
63189;SDS011;49286;44.460;26.114;2023-04-19T02:31:04;11.13;;;8.40;;
63189;SDS011;49286;44.460;26.114;2023-04-19T02:33:30;14.57;;;9.48;;
63189;SDS011;49286;44.460;26.114;2023-04-19T02:35:55;11.77;;;9.50;;
63189;SDS011;49286;44.460;26.114;2023-04-19T02:38:21;12.88;;;8.30;;
63189;SDS011;49286;44.460;26.114;2023-04-19T02:40:47;15.70;;;9.32;;
63189;SDS011;49286;44.460;26.114;2023-04-19T02:43:12;15.88;;;9.48;;
63189;SDS011;49286;44.460;26.114;2023-04-19T02:45:37;10.40;;;7.57;;
63189;SDS011;49286;44.460;26.114;2023-04-19T02:48:03;13.48;;;7.82;;
63189;SDS011;49286;44.460;26.114;2023-04-19T02:50:29;13.50;;;8.10;;
63189;SDS011;49286;44.460;26.114;2023-04-19T02:52:57;14.40;;;9.57;;
63189;SDS011;49286;44.460;26.114;2023-04-19T02:55:23;13.02;;;9.23;;
63189;SDS011;49286;44.460;26.114;2023-04-19T02:57:48;12.70;;;9.27;;
63189;SDS011;49286;44.460;26.114;2023-04-19T03:00:14;13.38;;;9.20;;
63189;SDS011;49286;44.460;26.114;2023-04-19T03:02:40;10.10;;;7.68;;
63189;SDS011;49286;44.460;26.114;2023-04-19T03:05:07;12.25;;;8.55;;
63189;SDS011;49286;44.460;26.114;2023-04-19T03:07:33;14.25;;;8.93;;
63189;SDS011;49286;44.460;26.114;2023-04-19T03:09:59;11.20;;;8.57;;
63189;SDS011;49286;44.460;26.114;2023-04-19T03:12:25;15.63;;;10.02;;
63189;SDS011;49286;44.460;26.114;2023-04-19T03:14:50;17.60;;;9.43;;
63189;SDS011;49286;44.460;26.114;2023-04-19T03:17:16;13.32;;;7.55;;
63189;SDS011;49286;44.460;26.114;2023-04-19T03:19:41;13.00;;;9.35;;
63189;SDS011;49286;44.460;26.114;2023-04-19T03:22:07;12.77;;;8.55;;
63189;SDS011;49286;44.460;26.114;2023-04-19T03:24:32;16.33;;;9.00;;
63189;SDS011;49286;44.460;26.114;2023-04-19T03:26:58;15.25;;;8.88;;
63189;SDS011;49286;44.460;26.114;2023-04-19T03:29:23;10.32;;;6.97;;
63189;SDS011;49286;44.460;26.114;2023-04-19T03:31:49;12.95;;;8.52;;
63189;SDS011;49286;44.460;26.114;2023-04-19T03:34:14;10.80;;;7.80;;
63189;SDS011;49286;44.460;26.114;2023-04-19T03:36:40;10.30;;;7.57;;
63189;SDS011;49286;44.460;26.114;2023-04-19T03:39:05;10.23;;;8.07;;
63189;SDS011;49286;44.460;26.114;2023-04-19T03:41:31;12.43;;;8.70;;
63189;SDS011;49286;44.460;26.114;2023-04-19T03:43:57;14.88;;;9.25;;
63189;SDS011;49286;44.460;26.114;2023-04-19T03:46:23;9.35;;;7.80;;
63189;SDS011;49286;44.460;26.114;2023-04-19T03:48:49;11.27;;;8.35;;
63189;SDS011;49286;44.460;26.114;2023-04-19T03:51:15;13.23;;;8.20;;
63189;SDS011;49286;44.460;26.114;2023-04-19T03:53:41;12.95;;;9.65;;
63189;SDS011;49286;44.460;26.114;2023-04-19T03:56:06;9.68;;;7.47;;
63189;SDS011;49286;44.460;26.114;2023-04-19T03:58:32;14.40;;;7.80;;
63189;SDS011;49286;44.460;26.114;2023-04-19T04:00:58;12.05;;;8.10;;
63189;SDS011;49286;44.460;26.114;2023-04-19T04:03:23;9.82;;;7.65;;
63189;SDS011;49286;44.460;26.114;2023-04-19T04:05:49;10.05;;;7.07;;
63189;SDS011;49286;44.460;26.114;2023-04-19T04:08:14;10.48;;;7.75;;
63189;SDS011;49286;44.460;26.114;2023-04-19T04:10:40;11.70;;;7.60;;
63189;SDS011;49286;44.460;26.114;2023-04-19T04:13:05;9.95;;;7.35;;
63189;SDS011;49286;44.460;26.114;2023-04-19T04:15:31;9.98;;;6.88;;
63189;SDS011;49286;44.460;26.114;2023-04-19T04:17:56;14.07;;;7.70;;
63189;SDS011;49286;44.460;26.114;2023-04-19T04:20:22;16.20;;;9.02;;
63189;SDS011;49286;44.460;26.114;2023-04-19T04:22:47;11.02;;;7.65;;
63189;SDS011;49286;44.460;26.114;2023-04-19T04:25:13;12.25;;;7.25;;
63189;SDS011;49286;44.460;26.114;2023-04-19T04:27:40;12.93;;;7.85;;
63189;SDS011;49286;44.460;26.114;2023-04-19T04:30:07;13.85;;;8.80;;
63189;SDS011;49286;44.460;26.114;2023-04-19T04:32:33;12.07;;;8.20;;
63189;SDS011;49286;44.460;26.114;2023-04-19T04:35:02;12.18;;;8.80;;
63189;SDS011;49286;44.460;26.114;2023-04-19T04:37:30;9.07;;;6.65;;
63189;SDS011;49286;44.460;26.114;2023-04-19T04:39:58;8.02;;;6.72;;
63189;SDS011;49286;44.460;26.114;2023-04-19T04:42:24;10.35;;;6.95;;
63189;SDS011;49286;44.460;26.114;2023-04-19T04:44:50;11.93;;;8.38;;
63189;SDS011;49286;44.460;26.114;2023-04-19T04:47:16;7.88;;;6.55;;
63189;SDS011;49286;44.460;26.114;2023-04-19T04:49:41;11.95;;;6.97;;
63189;SDS011;49286;44.460;26.114;2023-04-19T04:52:07;10.35;;;6.95;;
63189;SDS011;49286;44.460;26.114;2023-04-19T04:54:33;18.40;;;8.82;;
63189;SDS011;49286;44.460;26.114;2023-04-19T04:56:58;13.82;;;7.60;;
63189;SDS011;49286;44.460;26.114;2023-04-19T04:59:25;12.32;;;7.22;;
63189;SDS011;49286;44.460;26.114;2023-04-19T05:01:51;13.27;;;6.85;;
63189;SDS011;49286;44.460;26.114;2023-04-19T05:04:17;8.82;;;7.15;;
63189;SDS011;49286;44.460;26.114;2023-04-19T05:06:43;16.55;;;7.00;;
63189;SDS011;49286;44.460;26.114;2023-04-19T05:09:08;10.90;;;8.07;;
63189;SDS011;49286;44.460;26.114;2023-04-19T05:11:34;15.27;;;8.77;;
63189;SDS011;49286;44.460;26.114;2023-04-19T05:14:00;12.18;;;6.95;;
63189;SDS011;49286;44.460;26.114;2023-04-19T05:16:26;13.73;;;8.05;;
63189;SDS011;49286;44.460;26.114;2023-04-19T05:18:52;11.52;;;8.45;;
63189;SDS011;49286;44.460;26.114;2023-04-19T05:21:17;13.70;;;8.40;;
63189;SDS011;49286;44.460;26.114;2023-04-19T05:23:43;13.07;;;6.95;;
63189;SDS011;49286;44.460;26.114;2023-04-19T05:26:08;11.05;;;7.50;;
63189;SDS011;49286;44.460;26.114;2023-04-19T05:28:37;12.63;;;7.30;;
63189;SDS011;49286;44.460;26.114;2023-04-19T05:31:02;9.65;;;7.03;;
63189;SDS011;49286;44.460;26.114;2023-04-19T05:33:28;12.07;;;8.32;;
63189;SDS011;49286;44.460;26.114;2023-04-19T05:35:54;13.32;;;7.18;;
63189;SDS011;49286;44.460;26.114;2023-04-19T05:38:19;11.75;;;7.97;;
63189;SDS011;49286;44.460;26.114;2023-04-19T05:40:45;11.43;;;8.57;;
63189;SDS011;49286;44.460;26.114;2023-04-19T05:43:10;11.35;;;8.75;;
63189;SDS011;49286;44.460;26.114;2023-04-19T05:45:36;13.15;;;7.80;;
63189;SDS011;49286;44.460;26.114;2023-04-19T05:48:01;10.98;;;8.43;;
63189;SDS011;49286;44.460;26.114;2023-04-19T05:50:27;13.93;;;8.38;;
63189;SDS011;49286;44.460;26.114;2023-04-19T05:52:52;13.65;;;8.02;;
63189;SDS011;49286;44.460;26.114;2023-04-19T05:55:18;16.63;;;9.30;;
63189;SDS011;49286;44.460;26.114;2023-04-19T05:57:43;13.48;;;9.00;;
63189;SDS011;49286;44.460;26.114;2023-04-19T06:00:09;15.23;;;8.95;;
63189;SDS011;49286;44.460;26.114;2023-04-19T06:02:35;18.52;;;12.20;;
63189;SDS011;49286;44.460;26.114;2023-04-19T06:05:01;26.08;;;12.98;;
63189;SDS011;49286;44.460;26.114;2023-04-19T06:07:28;21.83;;;13.23;;
63189;SDS011;49286;44.460;26.114;2023-04-19T06:09:55;17.75;;;12.32;;
63189;SDS011;49286;44.460;26.114;2023-04-19T06:12:20;20.00;;;12.32;;
63189;SDS011;49286;44.460;26.114;2023-04-19T06:14:46;15.15;;;11.20;;
63189;SDS011;49286;44.460;26.114;2023-04-19T06:17:12;18.83;;;12.57;;
63189;SDS011;49286;44.460;26.114;2023-04-19T06:19:38;23.38;;;9.68;;
63189;SDS011;49286;44.460;26.114;2023-04-19T06:22:04;18.90;;;11.23;;
63189;SDS011;49286;44.460;26.114;2023-04-19T06:24:29;16.77;;;11.27;;
63189;SDS011;49286;44.460;26.114;2023-04-19T06:26:55;27.63;;;12.57;;
63189;SDS011;49286;44.460;26.114;2023-04-19T06:29:21;20.42;;;11.88;;
63189;SDS011;49286;44.460;26.114;2023-04-19T06:31:48;15.57;;;12.02;;
63189;SDS011;49286;44.460;26.114;2023-04-19T06:34:13;51.35;;;13.77;;
63189;SDS011;49286;44.460;26.114;2023-04-19T06:36:39;25.38;;;12.02;;
63189;SDS011;49286;44.460;26.114;2023-04-19T06:39:05;16.70;;;10.13;;
63189;SDS011;49286;44.460;26.114;2023-04-19T06:41:30;14.07;;;10.05;;
63189;SDS011;49286;44.460;26.114;2023-04-19T06:43:56;17.98;;;10.70;;
63189;SDS011;49286;44.460;26.114;2023-04-19T06:46:21;16.50;;;11.55;;
63189;SDS011;49286;44.460;26.114;2023-04-19T06:48:47;19.00;;;10.63;;
63189;SDS011;49286;44.460;26.114;2023-04-19T06:51:12;17.95;;;11.70;;
63189;SDS011;49286;44.460;26.114;2023-04-19T06:53:38;19.17;;;12.52;;
63189;SDS011;49286;44.460;26.114;2023-04-19T06:56:03;18.90;;;11.15;;
63189;SDS011;49286;44.460;26.114;2023-04-19T06:58:29;12.95;;;11.13;;
63189;SDS011;49286;44.460;26.114;2023-04-19T07:00:58;18.45;;;10.00;;
63189;SDS011;49286;44.460;26.114;2023-04-19T07:03:25;15.00;;;11.00;;
63189;SDS011;49286;44.460;26.114;2023-04-19T07:05:51;16.38;;;11.05;;
63189;SDS011;49286;44.460;26.114;2023-04-19T07:08:16;17.85;;;9.60;;
63189;SDS011;49286;44.460;26.114;2023-04-19T07:10:42;12.45;;;10.15;;
63189;SDS011;49286;44.460;26.114;2023-04-19T07:13:09;18.75;;;11.00;;
63189;SDS011;49286;44.460;26.114;2023-04-19T07:15:35;33.17;;;11.93;;
63189;SDS011;49286;44.460;26.114;2023-04-19T07:18:01;20.50;;;12.73;;
63189;SDS011;49286;44.460;26.114;2023-04-19T07:20:28;16.63;;;10.27;;
63189;SDS011;49286;44.460;26.114;2023-04-19T07:22:55;20.95;;;11.52;;
63189;SDS011;49286;44.460;26.114;2023-04-19T07:25:23;20.77;;;11.15;;
63189;SDS011;49286;44.460;26.114;2023-04-19T07:27:51;19.98;;;10.73;;
63189;SDS011;49286;44.460;26.114;2023-04-19T07:30:17;20.30;;;10.85;;
63189;SDS011;49286;44.460;26.114;2023-04-19T07:32:43;21.73;;;12.88;;
63189;SDS011;49286;44.460;26.114;2023-04-19T07:35:09;21.55;;;11.45;;
63189;SDS011;49286;44.460;26.114;2023-04-19T07:37:34;25.05;;;11.52;;
63189;SDS011;49286;44.460;26.114;2023-04-19T07:40:00;17.27;;;10.35;;
63189;SDS011;49286;44.460;26.114;2023-04-19T07:42:25;16.35;;;10.57;;
63189;SDS011;49286;44.460;26.114;2023-04-19T07:44:51;20.85;;;11.27;;
63189;SDS011;49286;44.460;26.114;2023-04-19T07:47:16;23.92;;;12.52;;
63189;SDS011;49286;44.460;26.114;2023-04-19T07:49:41;17.17;;;11.32;;
63189;SDS011;49286;44.460;26.114;2023-04-19T07:52:08;19.25;;;11.60;;
63189;SDS011;49286;44.460;26.114;2023-04-19T07:54:33;18.80;;;10.05;;
63189;SDS011;49286;44.460;26.114;2023-04-19T07:56:59;16.65;;;11.43;;
63189;SDS011;49286;44.460;26.114;2023-04-19T07:59:26;29.63;;;11.52;;
63189;SDS011;49286;44.460;26.114;2023-04-19T08:01:51;23.08;;;11.77;;
63189;SDS011;49286;44.460;26.114;2023-04-19T08:04:17;14.60;;;10.30;;
63189;SDS011;49286;44.460;26.114;2023-04-19T08:06:44;21.52;;;11.00;;
63189;SDS011;49286;44.460;26.114;2023-04-19T08:09:09;18.73;;;11.13;;
63189;SDS011;49286;44.460;26.114;2023-04-19T08:11:35;15.13;;;10.88;;
63189;SDS011;49286;44.460;26.114;2023-04-19T08:14:01;26.60;;;12.30;;
63189;SDS011;49286;44.460;26.114;2023-04-19T08:16:26;16.05;;;10.70;;
63189;SDS011;49286;44.460;26.114;2023-04-19T08:18:53;19.70;;;9.75;;
63189;SDS011;49286;44.460;26.114;2023-04-19T08:21:19;17.30;;;11.48;;
63189;SDS011;49286;44.460;26.114;2023-04-19T08:23:45;16.98;;;11.55;;
63189;SDS011;49286;44.460;26.114;2023-04-19T08:26:11;17.40;;;10.63;;
63189;SDS011;49286;44.460;26.114;2023-04-19T08:28:36;29.90;;;11.57;;
63189;SDS011;49286;44.460;26.114;2023-04-19T08:31:07;22.95;;;10.85;;
63189;SDS011;49286;44.460;26.114;2023-04-19T08:33:34;15.80;;;11.13;;
63189;SDS011;49286;44.460;26.114;2023-04-19T08:36:00;17.38;;;11.30;;
63189;SDS011;49286;44.460;26.114;2023-04-19T08:38:26;18.17;;;11.48;;
63189;SDS011;49286;44.460;26.114;2023-04-19T08:40:52;21.10;;;11.60;;
63189;SDS011;49286;44.460;26.114;2023-04-19T08:43:19;22.30;;;12.18;;
63189;SDS011;49286;44.460;26.114;2023-04-19T08:45:45;17.60;;;11.90;;
63189;SDS011;49286;44.460;26.114;2023-04-19T08:48:15;15.10;;;11.13;;
63189;SDS011;49286;44.460;26.114;2023-04-19T08:50:41;16.55;;;12.13;;
63189;SDS011;49286;44.460;26.114;2023-04-19T08:53:08;22.65;;;13.05;;
63189;SDS011;49286;44.460;26.114;2023-04-19T08:55:35;21.40;;;11.43;;
63189;SDS011;49286;44.460;26.114;2023-04-19T08:58:05;15.27;;;10.85;;
63189;SDS011;49286;44.460;26.114;2023-04-19T09:00:32;24.88;;;14.75;;
63189;SDS011;49286;44.460;26.114;2023-04-19T09:02:58;30.88;;;12.43;;
63189;SDS011;49286;44.460;26.114;2023-04-19T09:05:23;15.23;;;10.98;;
63189;SDS011;49286;44.460;26.114;2023-04-19T09:07:49;19.23;;;11.05;;
63189;SDS011;49286;44.460;26.114;2023-04-19T09:10:16;17.05;;;10.77;;
63189;SDS011;49286;44.460;26.114;2023-04-19T09:13:03;15.55;;;9.95;;
63189;SDS011;49286;44.460;26.114;2023-04-19T09:15:36;21.80;;;9.43;;
63189;SDS011;49286;44.460;26.114;2023-04-19T09:18:03;13.07;;;8.85;;
63189;SDS011;49286;44.460;26.114;2023-04-19T09:20:37;25.50;;;10.68;;
63189;SDS011;49286;44.460;26.114;2023-04-19T09:23:04;19.05;;;10.32;;
63189;SDS011;49286;44.460;26.114;2023-04-19T09:25:32;11.43;;;8.30;;
63189;SDS011;49286;44.460;26.114;2023-04-19T09:28:10;16.55;;;9.55;;
63189;SDS011;49286;44.460;26.114;2023-04-19T09:30:38;18.35;;;9.95;;
63189;SDS011;49286;44.460;26.114;2023-04-19T09:33:03;15.65;;;8.30;;
63189;SDS011;49286;44.460;26.114;2023-04-19T09:35:42;30.75;;;8.35;;
63189;SDS011;49286;44.460;26.114;2023-04-19T09:38:11;11.68;;;7.80;;
63189;SDS011;49286;44.460;26.114;2023-04-19T09:40:37;29.35;;;7.53;;
63189;SDS011;49286;44.460;26.114;2023-04-19T09:43:03;24.15;;;8.55;;
63189;SDS011;49286;44.460;26.114;2023-04-19T09:45:38;15.15;;;6.82;;
63189;SDS011;49286;44.460;26.114;2023-04-19T09:48:06;20.30;;;7.50;;
63189;SDS011;49286;44.460;26.114;2023-04-19T09:50:32;16.95;;;9.35;;
63189;SDS011;49286;44.460;26.114;2023-04-19T09:52:58;18.85;;;9.20;;
63189;SDS011;49286;44.460;26.114;2023-04-19T09:55:25;14.35;;;8.38;;
63189;SDS011;49286;44.460;26.114;2023-04-19T09:57:51;18.58;;;8.10;;
63189;SDS011;49286;44.460;26.114;2023-04-19T10:00:17;16.88;;;8.70;;
63189;SDS011;49286;44.460;26.114;2023-04-19T10:02:45;13.82;;;8.00;;
63189;SDS011;49286;44.460;26.114;2023-04-19T10:05:18;11.27;;;7.15;;
63189;SDS011;49286;44.460;26.114;2023-04-19T10:07:45;14.27;;;7.13;;
63189;SDS011;49286;44.460;26.114;2023-04-19T10:10:11;19.75;;;7.53;;
63189;SDS011;49286;44.460;26.114;2023-04-19T10:12:39;11.68;;;7.38;;
63189;SDS011;49286;44.460;26.114;2023-04-19T10:15:06;12.40;;;8.15;;
63189;SDS011;49286;44.460;26.114;2023-04-19T10:17:34;16.90;;;8.25;;
63189;SDS011;49286;44.460;26.114;2023-04-19T10:20:02;15.73;;;8.90;;
63189;SDS011;49286;44.460;26.114;2023-04-19T10:22:31;15.45;;;7.80;;
63189;SDS011;49286;44.460;26.114;2023-04-19T10:25:12;19.48;;;7.55;;
63189;SDS011;49286;44.460;26.114;2023-04-19T10:27:40;24.00;;;8.27;;
63189;SDS011;49286;44.460;26.114;2023-04-19T10:30:19;19.17;;;8.15;;
63189;SDS011;49286;44.460;26.114;2023-04-19T10:32:56;18.67;;;8.80;;
63189;SDS011;49286;44.460;26.114;2023-04-19T10:35:27;23.35;;;8.10;;
63189;SDS011;49286;44.460;26.114;2023-04-19T10:38:02;15.60;;;7.47;;
63189;SDS011;49286;44.460;26.114;2023-04-19T10:43:15;11.90;;;6.40;;
63189;SDS011;49286;44.460;26.114;2023-04-19T10:45:42;17.08;;;7.93;;
63189;SDS011;49286;44.460;26.114;2023-04-19T10:51:19;11.63;;;6.80;;
63189;SDS011;49286;44.460;26.114;2023-04-19T10:56:14;12.00;;;6.85;;
63189;SDS011;49286;44.460;26.114;2023-04-19T11:01:32;9.15;;;6.95;;
63189;SDS011;49286;44.460;26.114;2023-04-19T11:07:02;11.52;;;6.03;;
63189;SDS011;49286;44.460;26.114;2023-04-19T11:11:59;17.08;;;7.78;;
63189;SDS011;49286;44.460;26.114;2023-04-19T11:14:25;16.20;;;6.93;;
63189;SDS011;49286;44.460;26.114;2023-04-19T11:16:53;11.93;;;6.85;;
63189;SDS011;49286;44.460;26.114;2023-04-19T11:19:19;16.20;;;7.05;;
63189;SDS011;49286;44.460;26.114;2023-04-19T11:21:45;13.18;;;6.97;;
63189;SDS011;49286;44.460;26.114;2023-04-19T11:24:11;11.43;;;7.95;;
63189;SDS011;49286;44.460;26.114;2023-04-19T11:26:37;18.67;;;8.07;;
63189;SDS011;49286;44.460;26.114;2023-04-19T11:29:03;11.25;;;6.68;;
63189;SDS011;49286;44.460;26.114;2023-04-19T11:31:33;13.48;;;7.10;;
63189;SDS011;49286;44.460;26.114;2023-04-19T11:33:58;12.15;;;7.05;;
63189;SDS011;49286;44.460;26.114;2023-04-19T11:36:25;10.88;;;7.00;;
63189;SDS011;49286;44.460;26.114;2023-04-19T11:38:51;12.48;;;6.93;;
63189;SDS011;49286;44.460;26.114;2023-04-19T11:41:17;14.65;;;6.93;;
63189;SDS011;49286;44.460;26.114;2023-04-19T11:43:43;11.00;;;7.15;;
63189;SDS011;49286;44.460;26.114;2023-04-19T11:46:11;11.60;;;6.20;;
63189;SDS011;49286;44.460;26.114;2023-04-19T11:48:37;15.10;;;6.90;;
63189;SDS011;49286;44.460;26.114;2023-04-19T11:51:04;24.50;;;7.53;;
63189;SDS011;49286;44.460;26.114;2023-04-19T11:53:30;17.38;;;6.45;;
63189;SDS011;49286;44.460;26.114;2023-04-19T11:56:02;12.23;;;8.45;;
63189;SDS011;49286;44.460;26.114;2023-04-19T11:58:30;12.07;;;7.53;;
63189;SDS011;49286;44.460;26.114;2023-04-19T12:01:07;13.50;;;6.65;;
63189;SDS011;49286;44.460;26.114;2023-04-19T12:03:38;19.48;;;6.38;;
63189;SDS011;49286;44.460;26.114;2023-04-19T12:08:47;15.55;;;6.63;;
63189;SDS011;49286;44.460;26.114;2023-04-19T12:11:14;18.33;;;6.95;;
63189;SDS011;49286;44.460;26.114;2023-04-19T12:13:40;17.10;;;7.07;;
63189;SDS011;49286;44.460;26.114;2023-04-19T12:16:08;9.43;;;5.22;;
63189;SDS011;49286;44.460;26.114;2023-04-19T12:18:47;11.05;;;5.80;;
63189;SDS011;49286;44.460;26.114;2023-04-19T12:21:24;9.18;;;4.93;;
63189;SDS011;49286;44.460;26.114;2023-04-19T12:23:57;16.88;;;6.68;;
63189;SDS011;49286;44.460;26.114;2023-04-19T12:26:25;12.07;;;5.50;;
63189;SDS011;49286;44.460;26.114;2023-04-19T12:28:55;18.77;;;7.35;;
63189;SDS011;49286;44.460;26.114;2023-04-19T12:31:21;9.90;;;6.82;;
63189;SDS011;49286;44.460;26.114;2023-04-19T12:33:47;11.10;;;5.68;;
63189;SDS011;49286;44.460;26.114;2023-04-19T12:36:13;10.60;;;5.63;;
63189;SDS011;49286;44.460;26.114;2023-04-19T12:38:38;17.10;;;7.03;;
63189;SDS011;49286;44.460;26.114;2023-04-19T12:41:04;15.05;;;6.22;;
63189;SDS011;49286;44.460;26.114;2023-04-19T12:43:30;11.88;;;6.10;;
63189;SDS011;49286;44.460;26.114;2023-04-19T12:45:56;14.20;;;9.88;;
63189;SDS011;49286;44.460;26.114;2023-04-19T12:48:22;27.08;;;10.43;;
63189;SDS011;49286;44.460;26.114;2023-04-19T12:50:48;25.58;;;12.25;;
63189;SDS011;49286;44.460;26.114;2023-04-19T12:53:14;18.30;;;10.70;;
63189;SDS011;49286;44.460;26.114;2023-04-19T12:55:40;11.10;;;9.18;;
63189;SDS011;49286;44.460;26.114;2023-04-19T12:58:05;16.67;;;10.18;;
63189;SDS011;49286;44.460;26.114;2023-04-19T13:00:31;19.08;;;10.93;;
63189;SDS011;49286;44.460;26.114;2023-04-19T13:02:56;17.90;;;11.63;;
63189;SDS011;49286;44.460;26.114;2023-04-19T13:05:22;14.75;;;11.02;;
63189;SDS011;49286;44.460;26.114;2023-04-19T13:07:47;18.60;;;11.98;;
63189;SDS011;49286;44.460;26.114;2023-04-19T13:10:13;14.95;;;10.95;;
63189;SDS011;49286;44.460;26.114;2023-04-19T13:12:38;21.23;;;12.52;;
63189;SDS011;49286;44.460;26.114;2023-04-19T13:15:04;18.23;;;11.27;;
63189;SDS011;49286;44.460;26.114;2023-04-19T13:17:30;12.32;;;10.57;;
63189;SDS011;49286;44.460;26.114;2023-04-19T13:19:56;18.55;;;12.65;;
63189;SDS011;49286;44.460;26.114;2023-04-19T13:22:21;19.35;;;12.02;;
63189;SDS011;49286;44.460;26.114;2023-04-19T13:24:47;16.23;;;13.00;;
63189;SDS011;49286;44.460;26.114;2023-04-19T13:27:13;26.42;;;14.05;;
63189;SDS011;49286;44.460;26.114;2023-04-19T13:29:38;17.05;;;9.75;;
63189;SDS011;49286;44.460;26.114;2023-04-19T13:32:04;15.15;;;10.82;;
63189;SDS011;49286;44.460;26.114;2023-04-19T13:34:31;11.63;;;9.52;;
63189;SDS011;49286;44.460;26.114;2023-04-19T13:36:57;18.00;;;10.00;;
63189;SDS011;49286;44.460;26.114;2023-04-19T13:39:23;19.92;;;11.07;;
63189;SDS011;49286;44.460;26.114;2023-04-19T13:41:49;14.65;;;11.23;;
63189;SDS011;49286;44.460;26.114;2023-04-19T13:44:15;13.07;;;10.07;;
63189;SDS011;49286;44.460;26.114;2023-04-19T13:46:40;12.07;;;9.40;;
63189;SDS011;49286;44.460;26.114;2023-04-19T13:49:06;19.27;;;11.65;;
63189;SDS011;49286;44.460;26.114;2023-04-19T13:51:31;14.55;;;10.25;;
63189;SDS011;49286;44.460;26.114;2023-04-19T13:53:56;17.05;;;10.07;;
63189;SDS011;49286;44.460;26.114;2023-04-19T13:56:22;25.50;;;11.82;;
63189;SDS011;49286;44.460;26.114;2023-04-19T13:58:47;14.35;;;11.00;;
63189;SDS011;49286;44.460;26.114;2023-04-19T14:01:13;19.38;;;11.55;;
63189;SDS011;49286;44.460;26.114;2023-04-19T14:03:39;20.05;;;13.00;;
63189;SDS011;49286;44.460;26.114;2023-04-19T14:06:04;17.88;;;14.23;;
63189;SDS011;49286;44.460;26.114;2023-04-19T14:08:30;21.58;;;13.80;;
63189;SDS011;49286;44.460;26.114;2023-04-19T14:10:56;18.38;;;14.43;;
63189;SDS011;49286;44.460;26.114;2023-04-19T14:13:21;24.40;;;14.40;;
63189;SDS011;49286;44.460;26.114;2023-04-19T14:15:47;15.13;;;13.35;;
63189;SDS011;49286;44.460;26.114;2023-04-19T14:18:12;16.25;;;14.27;;
63189;SDS011;49286;44.460;26.114;2023-04-19T14:20:37;16.55;;;13.30;;
63189;SDS011;49286;44.460;26.114;2023-04-19T14:23:03;22.17;;;16.55;;
63189;SDS011;49286;44.460;26.114;2023-04-19T14:25:28;24.02;;;15.85;;
63189;SDS011;49286;44.460;26.114;2023-04-19T14:27:54;18.67;;;15.27;;
63189;SDS011;49286;44.460;26.114;2023-04-19T14:30:19;24.98;;;14.95;;